Time;durP1;ratioP1;P1;durP2;ratioP2;P2;SDS_P1;SDS_P2;PMS_P1;PMS_P2;Temp;Humidity;BMP_temperature;BMP_pressure;BME280_temperature;BME280_humidity;BME280_pressure;Samples;Min_cycle;Max_cycle;Signal;HPM_P1;HPM_P2
2021/12/09 00:01:01;;;;;;;12.90;5.80;;;;;;;0.50;94.26;100100.19;5020633;28;20385;-73
2021/12/09 00:03:28;;;;;;;12.07;5.57;;;;;;;0.43;94.20;100088.03;5024284;28;20103;-72
2021/12/09 00:05:56;;;;;;;12.10;5.50;;;;;;;0.49;94.36;100107.38;5008077;28;20026;-72
2021/12/09 00:08:22;;;;;;;8.07;5.82;;;;;;;0.51;94.21;100109.97;5009531;28;20202;-71
2021/12/09 00:10:48;;;;;;;15.55;5.47;;;;;;;0.50;94.73;100098.41;5009853;28;20456;-72
2021/12/09 00:13:13;;;;;;;12.95;5.80;;;;;;;0.49;94.34;100102.00;5028912;28;20031;-69
2021/12/09 00:15:38;;;;;;;15.10;6.03;;;;;;;0.50;94.54;100105.56;5023284;28;20134;-71
2021/12/09 00:18:04;;;;;;;12.63;5.65;;;;;;;0.51;94.52;100112.63;5028353;28;20060;-70
2021/12/09 00:20:29;;;;;;;10.82;5.68;;;;;;;0.54;94.81;100104.50;5020999;28;20160;-73
2021/12/09 00:22:54;;;;;;;16.60;6.10;;;;;;;0.55;94.19;100108.91;5023855;28;20367;-72
2021/12/09 00:25:20;;;;;;;15.48;6.45;;;;;;;0.53;94.44;100102.75;5015247;28;20041;-69
2021/12/09 00:27:45;;;;;;;15.18;5.63;;;;;;;0.54;94.28;100112.53;5022458;28;20026;-70
2021/12/09 00:30:12;;;;;;;14.23;6.03;;;;;;;0.56;94.70;100113.34;5023234;28;20021;-73
2021/12/09 00:32:39;;;;;;;13.68;5.97;;;;;;;0.54;94.44;100107.16;5020228;28;20018;-72
2021/12/09 00:35:06;;;;;;;10.98;5.20;;;;;;;0.54;94.44;100114.34;5021941;28;20041;-72
2021/12/09 00:40:00;;;;;;;11.70;5.32;;;;;;;0.51;94.51;100107.28;5021215;28;20057;-69
2021/12/09 00:42:27;;;;;;;14.32;5.97;;;;;;;0.48;94.44;100119.00;5032778;28;20026;-72
2021/12/09 00:44:53;;;;;;;16.33;6.10;;;;;;;0.45;94.66;100110.25;5028039;28;20060;-74
2021/12/09 00:47:20;;;;;;;11.10;6.07;;;;;;;0.48;94.78;100116.34;5015933;28;20117;-72
2021/12/09 00:49:46;;;;;;;14.43;5.47;;;;;;;0.50;94.54;100114.44;5028181;28;20029;-71
2021/12/09 00:52:12;;;;;;;10.07;5.63;;;;;;;0.47;94.59;100101.22;5025573;28;20025;-72
2021/12/09 00:54:38;;;;;;;11.93;5.80;;;;;;;0.50;94.82;100106.41;5027497;28;20059;-74
2021/12/09 00:57:04;;;;;;;17.65;5.93;;;;;;;0.50;94.76;100114.44;5024648;28;20057;-71
2021/12/09 00:59:29;;;;;;;15.27;5.82;;;;;;;0.57;94.92;100116.88;5018056;28;20565;-72
2021/12/09 01:01:54;;;;;;;12.27;5.80;;;;;;;0.61;94.99;100115.81;5036001;28;20408;-72
2021/12/09 01:04:20;;;;;;;11.65;5.72;;;;;;;0.64;94.88;100118.34;5043695;28;20726;-74
2021/12/09 01:06:45;;;;;;;15.85;5.95;;;;;;;0.67;95.19;100124.44;5012952;28;20053;-71
2021/12/09 01:09:10;;;;;;;8.57;5.60;;;;;;;0.65;94.52;100120.97;5016664;28;20036;-72
2021/12/09 01:11:35;;;;;;;13.73;5.55;;;;;;;0.67;94.63;100121.75;5025773;28;20483;-71
2021/12/09 01:14:01;;;;;;;12.35;5.45;;;;;;;0.65;94.35;100122.75;5022629;28;20018;-71
2021/12/09 01:16:26;;;;;;;11.80;5.35;;;;;;;0.65;94.53;100122.75;5011145;28;20065;-71
2021/12/09 01:18:52;;;;;;;15.93;4.97;;;;;;;0.62;94.48;100123.78;5025317;28;20029;-74
2021/12/09 01:21:17;;;;;;;14.70;6.03;;;;;;;0.58;94.53;100124.84;5020592;28;20033;-72
2021/12/09 01:23:43;;;;;;;13.15;5.65;;;;;;;0.60;94.44;100124.75;5022402;28;20036;-72
2021/12/09 01:26:09;;;;;;;11.45;5.85;;;;;;;0.58;94.70;100129.31;5026021;28;20076;-69
2021/12/09 01:28:46;;;;;;;17.67;5.63;;;;;;;0.61;94.67;100129.19;5027708;28;20041;-72
2021/12/09 01:31:11;;;;;;;10.98;5.38;;;;;;;0.60;94.62;100122.94;5018521;28;20022;-72
2021/12/09 01:33:37;;;;;;;13.35;5.72;;;;;;;0.62;94.34;100137.16;5020018;28;20105;-72
2021/12/09 01:36:05;;;;;;;14.70;6.25;;;;;;;0.60;94.67;100141.69;5022923;28;20029;-74
2021/12/09 01:38:32;;;;;;;10.90;5.97;;;;;;;0.61;95.05;100132.75;5010576;28;20087;-72
2021/12/09 01:40:59;;;;;;;10.77;5.97;;;;;;;0.60;94.54;100139.00;5027336;28;20144;-74
2021/12/09 01:43:25;;;;;;;11.80;5.90;;;;;;;0.62;94.31;100128.25;5024088;28;20228;-73
2021/12/09 01:46:05;;;;;;;12.65;5.85;;;;;;;0.59;94.44;100129.25;5024911;28;20027;-72
2021/12/09 01:48:30;;;;;;;11.27;5.20;;;;;;;0.57;94.30;100133.81;5019386;28;20033;-70
2021/12/09 01:50:55;;;;;;;10.13;5.35;;;;;;;0.56;94.66;100129.41;5027455;28;20408;-74
2021/12/09 01:53:21;;;;;;;10.68;5.75;;;;;;;0.53;94.55;100120.63;5022094;28;20025;-70
2021/12/09 01:55:46;;;;;;;15.00;6.13;;;;;;;0.52;94.73;100126.91;5022575;28;20433;-74
2021/12/09 01:58:11;;;;;;;12.13;5.45;;;;;;;0.50;94.61;100125.16;5013879;28;20079;-72
2021/12/09 02:00:38;;;;;;;9.38;5.55;;;;;;;0.49;94.39;100127.91;5010523;28;20022;-70
2021/12/09 02:03:05;;;;;;;12.90;5.97;;;;;;;0.46;94.45;100128.03;5022308;28;20056;-74
2021/12/09 02:05:31;;;;;;;17.65;6.15;;;;;;;0.44;94.67;100124.56;5010716;28;20026;-72
2021/12/09 02:07:57;;;;;;;17.77;6.10;;;;;;;0.42;94.65;100124.63;5015946;28;20080;-73
2021/12/09 02:10:23;;;;;;;10.55;5.45;;;;;;;0.39;94.38;100135.47;5016856;28;20041;-70
2021/12/09 02:12:50;;;;;;;14.18;5.93;;;;;;;0.36;94.85;100124.00;5027793;28;20040;-72
2021/12/09 02:15:20;;;;;;;13.52;5.85;;;;;;;0.31;94.23;100116.16;5026333;28;20010;-72
2021/12/09 02:17:45;;;;;;;12.65;5.40;;;;;;;0.22;94.12;100111.22;5024191;28;20025;-75
2021/12/09 02:20:11;;;;;;;17.45;5.88;;;;;;;0.20;94.48;100119.31;5021294;28;20444;-72
2021/12/09 02:22:37;;;;;;;13.68;5.78;;;;;;;0.18;94.22;100114.94;5019198;28;20037;-72
2021/12/09 02:25:03;;;;;;;11.90;5.63;;;;;;;0.13;94.59;100112.47;5026618;28;20461;-73
2021/12/09 02:27:29;;;;;;;12.07;5.18;;;;;;;0.11;94.48;100111.66;5027074;28;20465;-71
2021/12/09 02:29:55;;;;;;;10.77;5.50;;;;;;;0.12;94.91;100102.69;5024863;28;20030;-75
2021/12/09 02:32:21;;;;;;;9.10;5.10;;;;;;;0.11;94.73;100117.00;5021864;28;20026;-73
2021/12/09 02:34:46;;;;;;;13.82;5.72;;;;;;;0.09;94.82;100112.66;5026244;28;20100;-75
2021/12/09 02:37:13;;;;;;;15.98;5.32;;;;;;;0.08;94.93;100116.25;5022564;28;20727;-71
2021/12/09 02:39:43;;;;;;;12.40;5.70;;;;;;;0.05;94.88;100111.94;5016692;28;20050;-74
2021/12/09 02:42:08;;;;;;;14.55;5.40;;;;;;;0.06;94.99;100112.78;5019113;28;20064;-71
2021/12/09 02:44:34;;;;;;;14.43;5.63;;;;;;;0.05;94.98;100117.28;5024540;28;20037;-74
2021/12/09 02:47:00;;;;;;;14.45;5.22;;;;;;;0.05;95.19;100116.38;5015743;28;20068;-74
2021/12/09 02:49:28;;;;;;;13.30;5.90;;;;;;;0.04;94.94;100118.19;5017809;28;20049;-71
2021/12/09 02:51:55;;;;;;;11.73;5.60;;;;;;;0.03;94.96;100120.94;5030665;28;20097;-71
2021/12/09 02:54:22;;;;;;;10.65;5.25;;;;;;;0.00;95.06;100116.59;5029660;28;20018;-73
2021/12/09 02:56:51;;;;;;;13.45;6.57;;;;;;;-0.02;94.97;100119.31;5025419;28;20111;-74
2021/12/09 02:59:17;;;;;;;14.05;5.30;;;;;;;0.01;95.19;100120.13;5024899;28;20025;-70
2021/12/09 03:01:57;;;;;;;11.02;5.70;;;;;;;-0.01;94.86;100126.41;5013236;28;20038;-73
2021/12/09 03:04:27;;;;;;;16.20;5.40;;;;;;;-0.04;95.02;100121.19;5028440;28;20037;-73
2021/12/09 03:06:54;;;;;;;11.98;5.20;;;;;;;-0.01;95.27;100122.84;5015158;28;20021;-73
2021/12/09 03:09:21;;;;;;;11.88;5.38;;;;;;;-0.04;95.07;100125.66;5023393;28;20033;-73
2021/12/09 03:11:54;;;;;;;13.25;5.78;;;;;;;-0.05;95.18;100126.56;5030316;28;20033;-75
2021/12/09 03:14:21;;;;;;;13.80;5.75;;;;;;;-0.04;95.28;100134.56;5028682;28;20024;-74
2021/12/09 03:16:47;;;;;;;9.40;4.75;;;;;;;-0.03;95.35;100140.78;5020292;28;20088;-73
2021/12/09 03:19:12;;;;;;;15.00;5.97;;;;;;;-0.05;95.01;100143.53;5030005;28;20037;-74
2021/12/09 03:21:43;;;;;;;13.10;5.50;;;;;;;-0.07;95.22;100144.50;5030355;28;20021;-71
2021/12/09 03:24:12;;;;;;;8.43;5.10;;;;;;;-0.05;95.26;100154.22;5026354;28;20033;-74
2021/12/09 03:26:46;;;;;;;12.25;4.97;;;;;;;-0.04;95.20;100153.28;5016538;28;20028;-77
2021/12/09 03:29:13;;;;;;;8.32;4.88;;;;;;;-0.06;95.39;100159.59;5023361;28;20026;-72
2021/12/09 03:31:41;;;;;;;13.00;4.90;;;;;;;-0.07;95.38;100155.19;5016726;28;20053;-72
2021/12/09 03:34:07;;;;;;;13.10;4.57;;;;;;;-0.06;95.50;100156.94;5027816;28;20021;-71
2021/12/09 03:36:33;;;;;;;15.90;4.80;;;;;;;-0.10;95.33;100148.16;5029345;28;20534;-71
2021/12/09 03:39:03;;;;;;;15.13;5.40;;;;;;;-0.10;95.13;100156.16;5026825;28;20037;-74
2021/12/09 03:41:29;;;;;;;12.80;4.93;;;;;;;-0.13;95.31;100152.78;5029144;28;20030;-77
2021/12/09 03:43:54;;;;;;;7.60;4.38;;;;;;;-0.12;95.24;100158.03;5028456;28;20036;-71
2021/12/09 03:46:20;;;;;;;10.13;4.82;;;;;;;-0.11;95.29;100158.91;5021444;28;20476;-73
2021/12/09 03:48:45;;;;;;;13.95;4.82;;;;;;;-0.12;95.33;100171.41;5010187;28;20040;-71
2021/12/09 03:51:11;;;;;;;11.30;4.50;;;;;;;-0.12;95.08;100170.53;5024961;28;20037;-73
2021/12/09 03:53:37;;;;;;;9.93;5.25;;;;;;;-0.13;95.19;100172.34;5028656;28;20037;-71
2021/12/09 03:56:02;;;;;;;12.85;4.60;;;;;;;-0.17;95.34;100168.06;5029020;28;20171;-70
2021/12/09 03:58:28;;;;;;;19.40;4.45;;;;;;;-0.13;95.38;100166.13;5030079;28;20079;-70
2021/12/09 04:00:54;;;;;;;16.50;5.05;;;;;;;-0.15;95.06;100171.53;5021840;28;20068;-72
2021/12/09 04:03:19;;;;;;;13.50;4.32;;;;;;;-0.14;95.59;100167.03;5011008;28;20037;-76
2021/12/09 04:05:46;;;;;;;10.00;4.13;;;;;;;-0.15;95.08;100170.66;5013344;28;20022;-77
2021/12/09 04:08:11;;;;;;;11.65;4.47;;;;;;;-0.19;95.21;100169.03;5024596;28;20029;-70
2021/12/09 04:10:37;;;;;;;9.93;4.03;;;;;;;-0.21;95.59;100166.44;5029381;28;20033;-77
2021/12/09 04:13:03;;;;;;;8.30;4.03;;;;;;;-0.19;95.15;100159.22;5029099;28;20029;-73
2021/12/09 04:15:29;;;;;;;7.72;4.13;;;;;;;-0.18;95.57;100157.44;5025820;28;20113;-77
2021/12/09 04:17:54;;;;;;;10.63;4.22;;;;;;;-0.18;95.48;100154.75;5019247;28;20782;-73
2021/12/09 04:20:21;;;;;;;13.95;4.88;;;;;;;-0.19;95.46;100166.34;5020984;28;20111;-73
2021/12/09 04:22:49;;;;;;;9.32;4.43;;;;;;;-0.23;95.53;100170.97;5028527;28;20112;-71
2021/12/09 04:25:20;;;;;;;11.10;5.13;;;;;;;-0.26;95.16;100173.75;5024074;28;20030;-75
2021/12/09 04:27:46;;;;;;;11.05;4.07;;;;;;;-0.24;95.88;100171.00;5023695;28;20033;-77
2021/12/09 04:30:14;;;;;;;11.77;4.88;;;;;;;-0.24;95.63;100174.56;5013489;28;20080;-71
2021/12/09 04:32:40;;;;;;;18.52;4.35;;;;;;;-0.27;95.51;100172.88;5021481;28;20068;-77
2021/12/09 04:35:08;;;;;;;17.95;5.03;;;;;;;-0.27;95.33;100177.38;5029277;28;20428;-72
2021/12/09 04:37:33;;;;;;;10.95;4.72;;;;;;;-0.27;95.28;100182.72;5027631;28;20029;-71
2021/12/09 04:40:00;;;;;;;10.25;4.13;;;;;;;-0.27;95.65;100183.59;5025835;28;20053;-70
2021/12/09 04:42:26;;;;;;;9.15;4.00;;;;;;;-0.28;95.25;100184.53;5020568;28;20032;-77
2021/12/09 04:44:51;;;;;;;11.82;3.85;;;;;;;-0.27;95.76;100180.91;5028922;28;20108;-69
2021/12/09 04:47:17;;;;;;;9.10;3.75;;;;;;;-0.30;95.21;100178.34;5022873;28;20075;-69
2021/12/09 04:49:42;;;;;;;8.55;3.42;;;;;;;-0.30;95.32;100186.38;5028566;28;20038;-72
2021/12/09 04:52:08;;;;;;;7.75;3.65;;;;;;;-0.31;95.77;100181.09;5028933;28;20120;-75
2021/12/09 04:54:36;;;;;;;12.50;3.88;;;;;;;-0.31;95.39;100178.41;5027220;28;20032;-75
2021/12/09 04:57:03;;;;;;;8.85;3.78;;;;;;;-0.33;95.53;100175.81;5011113;28;20071;-72
2021/12/09 04:59:28;;;;;;;8.65;3.78;;;;;;;-0.33;95.43;100183.81;5024560;28;20041;-72
2021/12/09 05:01:54;;;;;;;13.02;4.03;;;;;;;-0.38;95.42;100176.88;5025326;28;20489;-75
2021/12/09 05:04:19;;;;;;;9.50;3.60;;;;;;;-0.38;95.55;100180.44;5026217;28;20075;-70
2021/12/09 05:06:44;;;;;;;6.85;3.30;;;;;;;-0.42;95.47;100168.16;5011170;28;20022;-73
2021/12/09 05:09:16;;;;;;;11.30;3.72;;;;;;;-0.41;95.30;100179.69;5026079;28;20060;-70
2021/12/09 05:14:07;;;;;;;6.20;3.05;;;;;;;-0.42;95.58;100177.94;5022174;28;20025;-69
2021/12/09 05:16:33;;;;;;;8.95;3.65;;;;;;;-0.45;95.33;100183.41;5010642;28;20436;-71
2021/12/09 05:18:58;;;;;;;5.82;2.55;;;;;;;-0.45;95.61;100189.63;5026592;28;20029;-70
2021/12/09 05:21:29;;;;;;;7.78;3.53;;;;;;;-0.49;95.48;100189.81;5028050;28;20090;-70
2021/12/09 05:23:56;;;;;;;7.32;3.10;;;;;;;-0.47;95.55;100190.59;5016186;28;20036;-72
2021/12/09 05:26:26;;;;;;;7.57;3.33;;;;;;;-0.48;95.58;100195.06;5018509;28;20131;-69
2021/12/09 05:28:55;;;;;;;8.93;3.70;;;;;;;-0.48;95.76;100192.41;5018173;28;20374;-69
2021/12/09 05:34:05;;;;;;;14.32;3.55;;;;;;;-0.45;95.95;100194.97;5023762;28;20068;-73
2021/12/09 05:36:30;;;;;;;10.48;4.25;;;;;;;-0.44;95.93;100190.50;5025565;28;20427;-71
2021/12/09 05:38:56;;;;;;;11.63;4.00;;;;;;;-0.44;95.78;100191.38;5021855;28;20025;-72
2021/12/09 05:41:21;;;;;;;10.98;3.63;;;;;;;-0.44;95.90;100195.84;5025503;28;20382;-73
2021/12/09 05:43:46;;;;;;;14.32;4.10;;;;;;;-0.41;95.60;100199.28;5027531;28;20033;-69
2021/12/09 05:46:11;;;;;;;9.50;4.00;;;;;;;-0.43;95.91;100201.13;5023616;28;20031;-70
2021/12/09 05:48:39;;;;;;;18.23;4.38;;;;;;;-0.43;95.99;100205.59;5023729;28;20025;-74
2021/12/09 05:51:04;;;;;;;8.70;4.40;;;;;;;-0.42;95.63;100210.00;5015767;28;20497;-70
2021/12/09 05:53:30;;;;;;;6.97;3.75;;;;;;;-0.41;95.94;100207.28;5014666;28;20022;-73
2021/12/09 05:55:55;;;;;;;16.58;4.07;;;;;;;-0.40;96.02;100210.81;5026523;28;20033;-69
2021/12/09 05:58:22;;;;;;;10.25;3.78;;;;;;;-0.41;96.14;100212.63;5026684;28;20111;-69
2021/12/09 06:00:49;;;;;;;17.20;4.60;;;;;;;-0.42;95.50;100208.22;5020718;28;20077;-71
2021/12/09 06:03:15;;;;;;;10.98;3.75;;;;;;;-0.42;95.75;100210.91;5019410;28;20113;-71
2021/12/09 06:05:40;;;;;;;9.32;4.13;;;;;;;-0.43;95.76;100208.25;5026014;28;20156;-69
2021/12/09 06:08:06;;;;;;;8.55;4.30;;;;;;;-0.44;95.87;100210.06;5026215;28;20109;-73
2021/12/09 06:10:34;;;;;;;13.20;3.95;;;;;;;-0.44;96.04;100212.75;5031285;28;20445;-72
2021/12/09 06:13:00;;;;;;;16.58;4.28;;;;;;;-0.46;96.05;100206.59;5025810;28;20747;-72
2021/12/09 06:15:25;;;;;;;10.85;4.15;;;;;;;-0.45;96.00;100212.81;5026279;28;20026;-69
2021/12/09 06:17:50;;;;;;;12.43;4.57;;;;;;;-0.44;95.93;100206.53;5022538;28;20040;-69
2021/12/09 06:20:16;;;;;;;12.10;4.72;;;;;;;-0.45;96.15;100202.13;5025670;28;20396;-69
2021/12/09 06:22:41;;;;;;;6.45;4.00;;;;;;;-0.41;96.07;100215.31;5027527;28;20118;-73
2021/12/09 06:25:07;;;;;;;6.20;3.80;;;;;;;-0.44;95.73;100204.72;5020767;28;20033;-69
2021/12/09 06:27:32;;;;;;;8.77;3.90;;;;;;;-0.40;96.02;100208.16;5030791;28;20728;-69
2021/12/09 06:29:58;;;;;;;9.40;4.25;;;;;;;-0.44;95.74;100203.84;5030297;28;20083;-69
2021/12/09 06:32:26;;;;;;;9.18;4.75;;;;;;;-0.46;95.69;100203.06;5027630;28;20424;-70
2021/12/09 06:34:53;;;;;;;11.40;4.63;;;;;;;-0.44;96.16;100206.53;5029981;28;20029;-72
2021/12/09 06:37:18;;;;;;;13.57;4.18;;;;;;;-0.44;96.25;100214.53;5031249;28;20022;-69
2021/12/09 06:39:43;;;;;;;14.90;5.03;;;;;;;-0.45;96.00;100211.00;5025259;28;20124;-72
2021/12/09 06:42:09;;;;;;;10.30;3.90;;;;;;;-0.43;95.82;100216.28;5014651;28;20033;-68
2021/12/09 06:44:34;;;;;;;11.45;6.28;;;;;;;-0.44;95.69;100219.88;5027720;28;20034;-69
2021/12/09 06:46:59;;;;;;;11.35;3.95;;;;;;;-0.46;95.66;100219.94;5012381;28;20076;-69
2021/12/09 06:49:25;;;;;;;8.05;4.63;;;;;;;-0.48;95.95;100228.94;5012063;28;20489;-68
2021/12/09 06:51:51;;;;;;;10.65;5.72;;;;;;;-0.48;95.78;100231.63;5012086;28;20037;-71
2021/12/09 06:54:17;;;;;;;8.45;4.38;;;;;;;-0.48;96.07;100228.94;5012728;28;20026;-69
2021/12/09 06:56:42;;;;;;;14.15;4.72;;;;;;;-0.47;96.29;100230.69;5024991;28;20029;-68
2021/12/09 06:59:07;;;;;;;9.77;4.32;;;;;;;-0.49;96.30;100227.19;5025284;28;20430;-70
2021/12/09 07:01:33;;;;;;;9.95;4.82;;;;;;;-0.52;96.07;100226.38;5023439;28;20035;-68
2021/12/09 07:03:58;;;;;;;14.30;5.47;;;;;;;-0.52;96.20;100229.03;5026189;28;20398;-68
2021/12/09 07:06:23;;;;;;;11.32;4.97;;;;;;;-0.49;96.04;100232.53;5011738;28;20044;-71
2021/12/09 07:08:52;;;;;;;14.65;5.15;;;;;;;-0.50;96.03;100236.16;5016313;28;20051;-71
2021/12/09 07:11:19;;;;;;;17.52;5.10;;;;;;;-0.48;96.33;100232.47;5018695;28;20025;-71
2021/12/09 07:13:45;;;;;;;16.23;5.38;;;;;;;-0.46;96.21;100238.66;5029842;28;20028;-68
2021/12/09 07:16:11;;;;;;;11.80;4.45;;;;;;;-0.48;95.98;100235.16;5026200;28;20513;-70
2021/12/09 07:18:37;;;;;;;15.10;5.03;;;;;;;-0.52;96.14;100234.38;5029993;28;20022;-69
2021/12/09 07:21:04;;;;;;;10.68;5.03;;;;;;;-0.49;96.12;100237.88;5029944;28;20238;-68
2021/12/09 07:23:29;;;;;;;14.50;4.70;;;;;;;-0.52;96.17;100231.72;5029936;28;20147;-69
2021/12/09 07:25:54;;;;;;;11.55;4.93;;;;;;;-0.48;96.36;100235.16;5019276;28;20116;-69
2021/12/09 07:28:20;;;;;;;11.98;3.92;;;;;;;-0.49;96.58;100230.75;5029011;28;20040;-69
2021/12/09 07:30:45;;;;;;;15.60;4.38;;;;;;;-0.43;96.63;100233.19;5029162;28;20105;-68
2021/12/09 07:33:11;;;;;;;14.90;5.25;;;;;;;-0.39;96.56;100236.63;5028219;28;20103;-68
2021/12/09 07:35:37;;;;;;;8.68;4.28;;;;;;;-0.40;96.25;100233.06;5023717;28;20096;-68
2021/12/09 07:38:04;;;;;;;8.00;4.07;;;;;;;-0.39;96.08;100237.47;5008400;28;20059;-71
2021/12/09 07:40:30;;;;;;;16.35;3.78;;;;;;;-0.40;96.38;100246.44;5016142;28;20045;-68
2021/12/09 07:42:55;;;;;;;7.30;4.25;;;;;;;-0.38;96.15;100251.72;5027349;28;20130;-69
2021/12/09 07:45:23;;;;;;;12.10;4.40;;;;;;;-0.39;96.20;100249.97;5024821;28;20049;-71
2021/12/09 07:47:49;;;;;;;14.15;4.82;;;;;;;-0.38;96.12;100252.56;5025411;28;20039;-69
2021/12/09 07:50:18;;;;;;;10.93;4.25;;;;;;;-0.38;96.17;100243.69;5029439;28;20029;-69
2021/12/09 07:52:47;;;;;;;9.98;5.03;;;;;;;-0.36;96.24;100249.88;5029600;28;20170;-70
2021/12/09 07:55:13;;;;;;;9.38;4.53;;;;;;;-0.35;96.34;100241.78;5029053;28;20503;-68
2021/12/09 07:57:39;;;;;;;14.02;5.90;;;;;;;-0.30;96.39;100249.63;5017376;28;20033;-70
2021/12/09 08:00:08;;;;;;;11.82;5.35;;;;;;;-0.31;96.16;100243.41;5028088;28;20030;-69
2021/12/09 08:02:34;;;;;;;12.07;5.05;;;;;;;-0.30;96.04;100246.97;5025825;28;20052;-71
2021/12/09 08:04:59;;;;;;;11.40;5.22;;;;;;;-0.32;96.31;100249.69;5025861;28;20046;-69
2021/12/09 08:07:24;;;;;;;11.52;4.85;;;;;;;-0.28;96.24;100262.03;5026864;28;20531;-69
2021/12/09 08:09:51;;;;;;;9.40;4.65;;;;;;;-0.27;96.20;100266.44;5025553;28;20100;-69
2021/12/09 08:12:17;;;;;;;16.90;4.85;;;;;;;-0.24;96.06;100269.91;5027914;28;20507;-69
2021/12/09 08:14:42;;;;;;;11.10;4.78;;;;;;;-0.20;96.67;100263.53;5024803;28;20057;-70
2021/12/09 08:17:12;;;;;;;15.00;5.88;;;;;;;-0.13;96.39;100271.25;5024078;28;20432;-71
2021/12/09 08:19:38;;;;;;;8.07;4.85;;;;;;;-0.05;96.34;100279.88;5017187;28;20033;-71
2021/12/09 08:22:03;;;;;;;11.30;5.13;;;;;;;0.01;96.31;100270.75;5026108;28;20033;-71
2021/12/09 08:24:28;;;;;;;18.65;6.28;;;;;;;0.07;96.64;100264.28;5028130;28;20383;-71
2021/12/09 08:26:54;;;;;;;13.80;5.78;;;;;;;0.14;96.57;100264.00;5019342;28;20041;-71
2021/12/09 08:29:19;;;;;;;13.10;5.43;;;;;;;0.22;96.23;100269.00;5027268;28;20099;-72
2021/12/09 08:31:44;;;;;;;14.65;5.18;;;;;;;0.29;96.41;100261.63;5023321;28;20548;-72
2021/12/09 08:34:09;;;;;;;13.13;5.57;;;;;;;0.36;96.07;100260.44;5028717;28;20404;-70
2021/12/09 08:36:35;;;;;;;10.98;5.50;;;;;;;0.42;96.15;100262.88;5016590;28;20496;-70
2021/12/09 08:39:00;;;;;;;14.73;4.40;;;;;;;0.47;96.09;100261.78;5027898;28;20029;-75
2021/12/09 08:41:26;;;;;;;11.88;5.10;;;;;;;0.54;96.12;100262.38;5019269;28;20387;-73
2021/12/09 08:43:51;;;;;;;13.45;6.07;;;;;;;0.60;95.95;100264.78;5028058;28;20034;-75
2021/12/09 08:46:17;;;;;;;13.43;5.05;;;;;;;0.66;95.90;100261.91;5024098;28;20401;-73
2021/12/09 08:48:43;;;;;;;9.13;5.13;;;;;;;0.71;95.92;100270.59;5043341;28;20034;-70
2021/12/09 08:51:09;;;;;;;14.60;5.28;;;;;;;0.75;95.70;100266.00;5028044;28;20058;-73
2021/12/09 08:53:35;;;;;;;12.65;5.35;;;;;;;0.80;96.14;100271.16;5012151;28;20567;-77
2021/12/09 08:56:01;;;;;;;16.55;5.10;;;;;;;0.85;95.68;100274.50;5025646;28;20055;-74
2021/12/09 08:58:28;;;;;;;18.63;5.50;;;;;;;0.89;95.58;100268.09;5009852;28;20025;-76
2021/12/09 09:00:57;;;;;;;13.52;5.47;;;;;;;0.98;95.53;100276.63;5010781;28;20024;-73
2021/12/09 09:03:22;;;;;;;13.52;5.13;;;;;;;1.01;95.46;100268.44;5024277;28;20041;-75
2021/12/09 09:05:47;;;;;;;12.23;5.20;;;;;;;1.04;95.40;100271.94;5018057;28;20076;-73
2021/12/09 09:08:13;;;;;;;10.98;4.97;;;;;;;1.11;95.03;100268.91;5023334;28;20489;-75
2021/12/09 09:10:40;;;;;;;16.45;6.25;;;;;;;1.17;95.18;100275.84;5028092;28;20029;-73
2021/12/09 09:13:06;;;;;;;12.45;5.03;;;;;;;1.21;94.96;100272.97;5011878;28;20105;-73
2021/12/09 09:15:31;;;;;;;12.95;4.38;;;;;;;1.28;95.22;100276.22;5026130;28;20108;-74
2021/12/09 09:17:59;;;;;;;17.20;5.20;;;;;;;1.32;95.15;100279.66;5011208;28;20049;-73
2021/12/09 09:20:28;;;;;;;16.15;5.47;;;;;;;1.36;94.98;100267.88;5023784;28;20413;-73
2021/12/09 09:22:53;;;;;;;17.17;5.68;;;;;;;1.42;95.05;100276.50;5012733;28;20033;-73
2021/12/09 09:25:28;;;;;;;17.50;5.60;;;;;;;1.49;95.01;100275.31;5008825;28;20037;-70
2021/12/09 09:27:54;;;;;;;16.38;6.43;;;;;;;1.53;95.01;100273.34;5006117;28;20336;-74
2021/12/09 09:30:20;;;;;;;15.13;5.68;;;;;;;1.59;94.67;100277.56;5011699;28;20424;-70
2021/12/09 09:32:50;;;;;;;14.73;5.35;;;;;;;1.64;94.81;100287.16;5019821;28;20113;-72
2021/12/09 09:35:16;;;;;;;22.08;6.25;;;;;;;1.68;94.60;100286.06;5015511;28;20067;-74
2021/12/09 09:37:42;;;;;;;12.90;5.57;;;;;;;1.70;94.33;100278.81;5026718;28;20033;-73
2021/12/09 09:40:14;;;;;;;17.83;5.68;;;;;;;1.76;94.67;100286.56;5022213;28;20061;-74
2021/12/09 09:45:09;;;;;;;13.43;5.95;;;;;;;1.86;94.54;100289.72;5026689;28;19912;-74
2021/12/09 09:47:35;;;;;;;12.00;5.70;;;;;;;1.91;94.00;100293.06;5024457;28;20063;-74
2021/12/09 09:50:02;;;;;;;9.45;5.07;;;;;;;1.96;93.80;100292.88;5013111;28;20025;-74
2021/12/09 09:52:28;;;;;;;10.13;5.43;;;;;;;1.98;94.03;100288.28;5027387;28;20535;-72
2021/12/09 09:54:55;;;;;;;11.65;5.95;;;;;;;2.02;93.92;100300.63;5026705;28;20025;-72
2021/12/09 09:57:21;;;;;;;12.00;5.90;;;;;;;2.07;93.69;100298.59;5019168;28;20385;-73
2021/12/09 09:59:47;;;;;;;16.65;6.32;;;;;;;2.11;93.63;100304.69;5025689;28;20025;-73
2021/12/09 10:02:13;;;;;;;17.85;5.70;;;;;;;2.13;93.65;100303.66;5016382;28;20042;-72
2021/12/09 10:07:08;;;;;;;15.07;6.18;;;;;;;2.20;93.54;100299.78;5013681;28;20037;-73
2021/12/09 10:09:33;;;;;;;11.38;5.65;;;;;;;2.24;94.07;100304.06;5022253;28;20485;-74
2021/12/09 10:12:00;;;;;;;15.27;5.13;;;;;;;2.30;93.55;100295.72;5023957;28;20037;-73
2021/12/09 10:14:30;;;;;;;13.27;6.18;;;;;;;2.36;93.76;100296.34;5026331;28;20400;-73
2021/12/09 10:17:12;;;;;;;14.88;6.07;;;;;;;2.41;93.53;100291.63;5021781;28;20029;-70
2021/12/09 10:19:55;;;;;;;15.35;6.07;;;;;;;2.45;93.77;100291.41;5026591;28;20535;-73
2021/12/09 10:22:30;;;;;;;13.80;6.03;;;;;;;2.48;93.33;100287.72;5022956;28;20418;-72
2021/12/09 10:24:57;;;;;;;13.30;5.88;;;;;;;2.51;93.36;100282.19;5018456;28;20095;-75
2021/12/09 10:27:28;;;;;;;12.98;6.22;;;;;;;2.54;93.32;100274.00;5024164;28;20033;-75
2021/12/09 10:29:58;;;;;;;14.65;6.47;;;;;;;2.60;93.50;100270.13;5035124;28;20025;-73
2021/12/09 10:32:29;;;;;;;18.13;7.68;;;;;;;2.67;93.44;100264.41;5020853;28;20032;-72
2021/12/09 10:35:01;;;;;;;21.23;6.40;;;;;;;2.71;93.26;100259.75;5020172;28;20031;-74
2021/12/09 10:37:28;;;;;;;12.52;6.15;;;;;;;2.76;92.92;100263.09;5025446;28;20053;-73
2021/12/09 10:40:14;;;;;;;12.50;6.55;;;;;;;2.80;93.01;100267.34;5024007;28;20568;-73
2021/12/09 10:42:43;;;;;;;18.25;6.05;;;;;;;2.83;92.18;100263.63;5020178;28;20125;-75
2021/12/09 10:45:08;;;;;;;14.13;6.60;;;;;;;2.86;92.42;100269.72;5024330;28;20370;-73
2021/12/09 10:47:54;;;;;;;10.47;6.63;;;;;;;2.87;92.31;100271.47;5017475;28;20036;-73
2021/12/09 10:50:35;;;;;;;9.95;6.35;;;;;;;2.88;92.52;100283.06;5024907;28;20318;-73
2021/12/09 10:53:30;;;;;;;12.70;6.55;;;;;;;2.93;92.60;100283.72;5018858;28;20108;-74
2021/12/09 10:55:59;;;;;;;14.15;5.97;;;;;;;2.98;92.49;100284.34;5026847;28;20025;-71
2021/12/09 10:58:27;;;;;;;13.48;5.95;;;;;;;2.97;91.95;100283.47;5025321;28;20033;-74
2021/12/09 11:00:54;;;;;;;10.98;5.70;;;;;;;2.99;92.12;100280.75;5018164;28;20473;-74
2021/12/09 11:03:28;;;;;;;11.10;6.57;;;;;;;3.02;92.56;100280.56;5025382;28;20099;-74
2021/12/09 11:06:03;;;;;;;13.35;6.03;;;;;;;3.04;92.71;100276.00;5016352;28;20030;-70
2021/12/09 11:08:37;;;;;;;14.10;6.57;;;;;;;3.09;92.15;100275.78;5018494;28;20033;-73
2021/12/09 11:11:16;;;;;;;9.02;5.95;;;;;;;3.13;92.21;100275.53;5014449;28;20033;-74
2021/12/09 11:13:50;;;;;;;14.80;6.38;;;;;;;3.16;92.34;100266.44;5022897;28;20029;-74
2021/12/09 11:16:24;;;;;;;11.38;6.22;;;;;;;3.18;91.84;100267.25;5025164;28;20084;-72
2021/12/09 11:18:52;;;;;;;11.20;6.13;;;;;;;3.22;92.28;100268.81;5029439;28;20029;-74
2021/12/09 11:21:24;;;;;;;16.00;7.55;;;;;;;3.24;91.56;100264.22;5023330;28;20026;-72
2021/12/09 11:23:59;;;;;;;13.90;6.97;;;;;;;3.26;91.85;100265.00;5023638;28;20041;-74
2021/12/09 11:26:37;;;;;;;12.52;6.50;;;;;;;3.28;92.09;100250.53;5029657;28;20393;-73
2021/12/09 11:29:11;;;;;;;11.38;6.03;;;;;;;3.33;91.23;100242.25;5026070;28;20033;-71
2021/12/09 11:32:06;;;;;;;12.10;6.25;;;;;;;3.35;91.70;100240.31;5019375;28;20060;-70
2021/12/09 11:34:39;;;;;;;13.88;6.40;;;;;;;3.42;91.51;100246.28;5023804;28;20128;-74